sensor_id;sensor_type;location;lat;lon;timestamp;pressure;altitude;pressure_sealevel;temperature;humidity
75063;BME280;63981;51.052;13.754;2023-08-30T00:00:45;99618.16;;;14.36;91.88
75063;BME280;63981;51.052;13.754;2023-08-30T00:03:12;99621.78;;;14.35;92.09
75063;BME280;63981;51.052;13.754;2023-08-30T00:05:38;99636.72;;;14.36;93.11
75063;BME280;63981;51.052;13.754;2023-08-30T00:08:05;99647.19;;;14.37;92.44
75063;BME280;63981;51.052;13.754;2023-08-30T00:10:31;99650.38;;;14.41;92.45
75063;BME280;63981;51.052;13.754;2023-08-30T00:12:58;99647.47;;;14.44;92.47
75063;BME280;63981;51.052;13.754;2023-08-30T00:15:24;99652.88;;;14.42;92.32
75063;BME280;63981;51.052;13.754;2023-08-30T00:17:50;99653.88;;;14.41;92.41
75063;BME280;63981;51.052;13.754;2023-08-30T00:20:20;99655.53;;;14.42;92.25
75063;BME280;63981;51.052;13.754;2023-08-30T00:22:47;99652.03;;;14.42;92.63
75063;BME280;63981;51.052;13.754;2023-08-30T00:25:16;99651.06;;;14.43;92.02
75063;BME280;63981;51.052;13.754;2023-08-30T00:27:42;99657.50;;;14.40;92.14
75063;BME280;63981;51.052;13.754;2023-08-30T00:30:10;99644.09;;;14.42;92.62
75063;BME280;63981;51.052;13.754;2023-08-30T00:32:36;99655.31;;;14.45;92.19
75063;BME280;63981;51.052;13.754;2023-08-30T00:35:03;99655.72;;;14.51;91.87
75063;BME280;63981;51.052;13.754;2023-08-30T00:37:29;99661.56;;;14.54;91.76
75063;BME280;63981;51.052;13.754;2023-08-30T00:39:55;99660.44;;;14.57;92.07
75063;BME280;63981;51.052;13.754;2023-08-30T00:42:21;99661.03;;;14.60;91.68
75063;BME280;63981;51.052;13.754;2023-08-30T00:44:48;99659.91;;;14.63;91.44
75063;BME280;63981;51.052;13.754;2023-08-30T00:47:15;99664.38;;;14.62;91.55
75063;BME280;63981;51.052;13.754;2023-08-30T00:49:41;99659.34;;;14.59;91.03
75063;BME280;63981;51.052;13.754;2023-08-30T00:52:08;99660.59;;;14.55;90.93
75063;BME280;63981;51.052;13.754;2023-08-30T00:54:36;99666.03;;;14.54;90.99
75063;BME280;63981;51.052;13.754;2023-08-30T00:57:02;99661.72;;;14.53;91.24
75063;BME280;63981;51.052;13.754;2023-08-30T00:59:29;99668.56;;;14.45;90.77
75063;BME280;63981;51.052;13.754;2023-08-30T01:01:57;99666.88;;;14.44;90.88
75063;BME280;63981;51.052;13.754;2023-08-30T01:04:25;99665.50;;;14.50;90.73
75063;BME280;63981;51.052;13.754;2023-08-30T01:06:51;99670.78;;;14.50;90.45
75063;BME280;63981;51.052;13.754;2023-08-30T01:09:18;99665.19;;;14.53;90.69
75063;BME280;63981;51.052;13.754;2023-08-30T01:14:21;99660.59;;;14.65;90.02
75063;BME280;63981;51.052;13.754;2023-08-30T01:16:48;99659.91;;;14.63;90.42
75063;BME280;63981;51.052;13.754;2023-08-30T01:22:15;99661.72;;;14.62;90.65
75063;BME280;63981;51.052;13.754;2023-08-30T01:27:42;99654.03;;;14.59;90.49
75063;BME280;63981;51.052;13.754;2023-08-30T01:30:10;99656.56;;;14.61;90.35
75063;BME280;63981;51.052;13.754;2023-08-30T01:32:37;99641.34;;;14.63;90.92
75063;BME280;63981;51.052;13.754;2023-08-30T01:35:05;99637.41;;;14.67;90.70
75063;BME280;63981;51.052;13.754;2023-08-30T01:37:32;99648.16;;;14.75;91.08
75063;BME280;63981;51.052;13.754;2023-08-30T01:40:00;99649.25;;;14.82;90.84
75063;BME280;63981;51.052;13.754;2023-08-30T01:42:27;99647.03;;;14.87;90.46
75063;BME280;63981;51.052;13.754;2023-08-30T01:44:55;99636.25;;;14.89;90.28
75063;BME280;63981;51.052;13.754;2023-08-30T01:47:25;99632.91;;;14.87;89.86
75063;BME280;63981;51.052;13.754;2023-08-30T01:49:54;99625.94;;;14.86;90.09
75063;BME280;63981;51.052;13.754;2023-08-30T01:52:22;99622.16;;;14.88;89.67
75063;BME280;63981;51.052;13.754;2023-08-30T01:54:53;99627.31;;;14.90;89.01
75063;BME280;63981;51.052;13.754;2023-08-30T01:57:19;99622.53;;;14.93;89.45
75063;BME280;63981;51.052;13.754;2023-08-30T01:59:45;99623.09;;;14.97;89.30
75063;BME280;63981;51.052;13.754;2023-08-30T02:02:11;99616.25;;;14.94;88.86
75063;BME280;63981;51.052;13.754;2023-08-30T02:04:38;99617.53;;;14.90;88.38
75063;BME280;63981;51.052;13.754;2023-08-30T02:07:19;99617.53;;;14.90;88.41
75063;BME280;63981;51.052;13.754;2023-08-30T02:09:58;99614.19;;;14.88;88.35
75063;BME280;63981;51.052;13.754;2023-08-30T02:12:29;99611.38;;;14.90;88.17
75063;BME280;63981;51.052;13.754;2023-08-30T02:14:57;99613.59;;;14.94;87.98
75063;BME280;63981;51.052;13.754;2023-08-30T02:17:24;99619.59;;;14.96;88.26
75063;BME280;63981;51.052;13.754;2023-08-30T02:19:50;99615.28;;;14.95;88.15
75063;BME280;63981;51.052;13.754;2023-08-30T02:22:19;99632.19;;;14.94;87.80
75063;BME280;63981;51.052;13.754;2023-08-30T02:24:45;99628.53;;;14.95;87.10
75063;BME280;63981;51.052;13.754;2023-08-30T02:27:11;99623.94;;;14.97;86.85
75063;BME280;63981;51.052;13.754;2023-08-30T02:29:38;99636.94;;;15.00;87.33
75063;BME280;63981;51.052;13.754;2023-08-30T02:32:06;99637.22;;;14.97;87.16
75063;BME280;63981;51.052;13.754;2023-08-30T02:34:32;99645.19;;;14.97;87.17
75063;BME280;63981;51.052;13.754;2023-08-30T02:36:58;99634.84;;;14.94;86.89
75063;BME280;63981;51.052;13.754;2023-08-30T02:39:24;99651.34;;;14.98;87.14
75063;BME280;63981;51.052;13.754;2023-08-30T02:41:50;99647.97;;;14.96;87.16
75063;BME280;63981;51.052;13.754;2023-08-30T02:44:16;99646.88;;;14.89;85.88
75063;BME280;63981;51.052;13.754;2023-08-30T02:46:42;99641.84;;;14.86;86.59
75063;BME280;63981;51.052;13.754;2023-08-30T02:49:08;99629.69;;;14.83;86.92
75063;BME280;63981;51.052;13.754;2023-08-30T02:51:37;99636.66;;;14.84;86.20
75063;BME280;63981;51.052;13.754;2023-08-30T02:54:03;99636.13;;;14.81;86.29
75063;BME280;63981;51.052;13.754;2023-08-30T02:56:29;99635.97;;;14.82;86.25
75063;BME280;63981;51.052;13.754;2023-08-30T02:58:55;99638.78;;;14.81;87.30
75063;BME280;63981;51.052;13.754;2023-08-30T03:01:22;99636.28;;;14.79;86.36
75063;BME280;63981;51.052;13.754;2023-08-30T03:03:49;99633.31;;;14.82;87.44
75063;BME280;63981;51.052;13.754;2023-08-30T03:06:17;99638.63;;;14.82;86.88
75063;BME280;63981;51.052;13.754;2023-08-30T03:08:44;99645.50;;;14.85;87.39
75063;BME280;63981;51.052;13.754;2023-08-30T03:11:12;99643.94;;;14.82;87.41
75063;BME280;63981;51.052;13.754;2023-08-30T03:13:43;99651.06;;;14.82;87.27
75063;BME280;63981;51.052;13.754;2023-08-30T03:16:14;99645.34;;;14.77;87.48
75063;BME280;63981;51.052;13.754;2023-08-30T03:18:41;99647.72;;;14.70;87.41
75063;BME280;63981;51.052;13.754;2023-08-30T03:21:08;99652.34;;;14.68;87.44
75063;BME280;63981;51.052;13.754;2023-08-30T03:23:34;99648.16;;;14.65;87.34
75063;BME280;63981;51.052;13.754;2023-08-30T03:26:08;99650.38;;;14.70;87.82
75063;BME280;63981;51.052;13.754;2023-08-30T03:28:36;99646.63;;;14.72;87.84
75063;BME280;63981;51.052;13.754;2023-08-30T03:31:02;99640.06;;;14.77;87.99
75063;BME280;63981;51.052;13.754;2023-08-30T03:33:28;99641.88;;;14.76;87.80
75063;BME280;63981;51.052;13.754;2023-08-30T03:35:58;99636.56;;;14.76;87.36
75063;BME280;63981;51.052;13.754;2023-08-30T03:38:24;99637.53;;;14.75;86.99
75063;BME280;63981;51.052;13.754;2023-08-30T03:40:53;99644.38;;;14.78;86.58
75063;BME280;63981;51.052;13.754;2023-08-30T03:43:20;99650.38;;;14.80;86.69
75063;BME280;63981;51.052;13.754;2023-08-30T03:45:46;99655.28;;;14.74;86.78
75063;BME280;63981;51.052;13.754;2023-08-30T03:48:12;99654.44;;;14.74;85.69
75063;BME280;63981;51.052;13.754;2023-08-30T03:50:38;99645.78;;;14.72;86.23
75063;BME280;63981;51.052;13.754;2023-08-30T03:53:04;99639.34;;;14.74;86.19
75063;BME280;63981;51.052;13.754;2023-08-30T03:55:30;99641.59;;;14.69;85.87
75063;BME280;63981;51.052;13.754;2023-08-30T03:57:57;99636.72;;;14.65;86.19
75063;BME280;63981;51.052;13.754;2023-08-30T04:00:23;99643.25;;;14.70;86.65
75063;BME280;63981;51.052;13.754;2023-08-30T04:02:50;99645.66;;;14.73;86.92
75063;BME280;63981;51.052;13.754;2023-08-30T04:05:16;99647.31;;;14.74;86.75
75063;BME280;63981;51.052;13.754;2023-08-30T04:07:42;99643.84;;;14.74;86.77
75063;BME280;63981;51.052;13.754;2023-08-30T04:10:08;99641.59;;;14.69;86.09
75063;BME280;63981;51.052;13.754;2023-08-30T04:12:35;99637.25;;;14.68;86.22
75063;BME280;63981;51.052;13.754;2023-08-30T04:15:02;99643.41;;;14.69;85.78
75063;BME280;63981;51.052;13.754;2023-08-30T04:17:28;99638.25;;;14.67;85.96
75063;BME280;63981;51.052;13.754;2023-08-30T04:19:54;99640.34;;;14.73;86.09
75063;BME280;63981;51.052;13.754;2023-08-30T04:22:20;99638.09;;;14.79;86.31
75063;BME280;63981;51.052;13.754;2023-08-30T04:24:46;99634.16;;;14.83;85.54
75063;BME280;63981;51.052;13.754;2023-08-30T04:27:13;99639.31;;;14.84;84.89
75063;BME280;63981;51.052;13.754;2023-08-30T04:29:39;99628.16;;;14.81;85.37
75063;BME280;63981;51.052;13.754;2023-08-30T04:32:05;99638.63;;;14.92;85.05
75063;BME280;63981;51.052;13.754;2023-08-30T04:34:32;99634.84;;;14.94;85.31
75063;BME280;63981;51.052;13.754;2023-08-30T04:36:58;99640.97;;;14.95;85.06
75063;BME280;63981;51.052;13.754;2023-08-30T04:39:24;99639.59;;;14.91;84.60
75063;BME280;63981;51.052;13.754;2023-08-30T04:41:52;99640.28;;;14.93;84.96
75063;BME280;63981;51.052;13.754;2023-08-30T04:44:18;99643.94;;;14.92;85.04
75063;BME280;63981;51.052;13.754;2023-08-30T04:46:45;99641.13;;;14.84;84.63
75063;BME280;63981;51.052;13.754;2023-08-30T04:49:12;99640.19;;;14.85;84.78
75063;BME280;63981;51.052;13.754;2023-08-30T04:51:38;99647.84;;;14.88;84.67
75063;BME280;63981;51.052;13.754;2023-08-30T04:54:05;99646.56;;;14.92;84.47
75063;BME280;63981;51.052;13.754;2023-08-30T04:56:31;99654.09;;;14.96;84.66
75063;BME280;63981;51.052;13.754;2023-08-30T04:58:58;99661.66;;;15.01;84.29
75063;BME280;63981;51.052;13.754;2023-08-30T05:01:28;99664.69;;;15.06;83.64
75063;BME280;63981;51.052;13.754;2023-08-30T05:03:57;99665.25;;;15.10;84.05
75063;BME280;63981;51.052;13.754;2023-08-30T05:06:23;99657.28;;;15.10;83.93
75063;BME280;63981;51.052;13.754;2023-08-30T05:08:49;99668.31;;;15.15;84.10
75063;BME280;63981;51.052;13.754;2023-08-30T05:11:15;99671.81;;;15.15;84.36
75063;BME280;63981;51.052;13.754;2023-08-30T05:13:42;99675.84;;;15.19;83.56
75063;BME280;63981;51.052;13.754;2023-08-30T05:16:08;99669.53;;;15.20;83.96
75063;BME280;63981;51.052;13.754;2023-08-30T05:18:34;99673.34;;;15.18;83.35
75063;BME280;63981;51.052;13.754;2023-08-30T05:21:01;99662.47;;;15.11;83.61
75063;BME280;63981;51.052;13.754;2023-08-30T05:23:30;99671.97;;;15.14;84.03
75063;BME280;63981;51.052;13.754;2023-08-30T05:25:57;99662.19;;;15.14;83.73
75063;BME280;63981;51.052;13.754;2023-08-30T05:28:23;99656.19;;;15.12;83.08
75063;BME280;63981;51.052;13.754;2023-08-30T05:30:50;99664.97;;;15.13;83.10
75063;BME280;63981;51.052;13.754;2023-08-30T05:33:48;99665.81;;;15.13;83.43
75063;BME280;63981;51.052;13.754;2023-08-30T05:36:47;99664.00;;;15.14;83.26
75063;BME280;63981;51.052;13.754;2023-08-30T05:39:35;99669.31;;;15.14;83.12
75063;BME280;63981;51.052;13.754;2023-08-30T05:42:01;99666.66;;;15.14;82.66
75063;BME280;63981;51.052;13.754;2023-08-30T05:44:28;99670.97;;;15.15;81.92
75063;BME280;63981;51.052;13.754;2023-08-30T05:46:55;99666.34;;;15.17;82.06
75063;BME280;63981;51.052;13.754;2023-08-30T05:49:21;99666.34;;;15.17;81.69
75063;BME280;63981;51.052;13.754;2023-08-30T05:51:47;99670.38;;;15.21;82.16
75063;BME280;63981;51.052;13.754;2023-08-30T05:54:13;99663.81;;;15.25;81.50
75063;BME280;63981;51.052;13.754;2023-08-30T05:56:41;99658.75;;;15.31;81.92
75063;BME280;63981;51.052;13.754;2023-08-30T05:59:07;99657.34;;;15.37;82.21
75063;BME280;63981;51.052;13.754;2023-08-30T06:01:33;99660.53;;;15.41;82.19
75063;BME280;63981;51.052;13.754;2023-08-30T06:04:01;99659.41;;;15.43;81.45
75063;BME280;63981;51.052;13.754;2023-08-30T06:06:27;99660.53;;;15.41;81.14
75063;BME280;63981;51.052;13.754;2023-08-30T06:08:53;99658.56;;;15.43;81.79
75063;BME280;63981;51.052;13.754;2023-08-30T06:11:19;99657.13;;;15.48;82.06
75063;BME280;63981;51.052;13.754;2023-08-30T06:13:45;99659.91;;;15.56;81.75
75063;BME280;63981;51.052;13.754;2023-08-30T06:16:11;99654.44;;;15.58;81.80
75063;BME280;63981;51.052;13.754;2023-08-30T06:18:38;99657.25;;;15.66;82.00
75063;BME280;63981;51.052;13.754;2023-08-30T06:21:07;99661.25;;;15.70;81.50
75063;BME280;63981;51.052;13.754;2023-08-30T06:23:34;99650.78;;;15.69;81.26
75063;BME280;63981;51.052;13.754;2023-08-30T06:26:00;99668.66;;;15.76;81.91
75063;BME280;63981;51.052;13.754;2023-08-30T06:28:26;99660.91;;;15.83;80.86
75063;BME280;63981;51.052;13.754;2023-08-30T06:30:52;99660.75;;;15.84;82.10
75063;BME280;63981;51.052;13.754;2023-08-30T06:33:18;99651.66;;;15.87;81.15
75063;BME280;63981;51.052;13.754;2023-08-30T06:35:47;99657.81;;;15.87;80.98
75063;BME280;63981;51.052;13.754;2023-08-30T06:38:14;99651.22;;;15.91;81.11
75063;BME280;63981;51.052;13.754;2023-08-30T06:40:44;99659.56;;;15.97;79.95
75063;BME280;63981;51.052;13.754;2023-08-30T06:43:11;99658.28;;;16.01;80.86
75063;BME280;63981;51.052;13.754;2023-08-30T06:45:38;99663.31;;;16.04;80.78
75063;BME280;63981;51.052;13.754;2023-08-30T06:48:06;99660.66;;;16.04;80.52
75063;BME280;63981;51.052;13.754;2023-08-30T06:50:34;99669.53;;;16.12;80.91
75063;BME280;63981;51.052;13.754;2023-08-30T06:53:01;99663.78;;;16.17;79.24
75063;BME280;63981;51.052;13.754;2023-08-30T06:55:27;99665.25;;;16.29;79.92
75063;BME280;63981;51.052;13.754;2023-08-30T06:57:53;99664.47;;;16.37;79.65
75063;BME280;63981;51.052;13.754;2023-08-30T07:00:19;99661.06;;;16.44;79.24
75063;BME280;63981;51.052;13.754;2023-08-30T07:02:45;99670.63;;;16.55;79.09
75063;BME280;63981;51.052;13.754;2023-08-30T07:05:12;99660.59;;;16.67;79.08
75063;BME280;63981;51.052;13.754;2023-08-30T07:07:39;99665.47;;;16.71;78.98
75063;BME280;63981;51.052;13.754;2023-08-30T07:10:05;99668.47;;;16.76;78.36
75063;BME280;63981;51.052;13.754;2023-08-30T07:12:32;99675.03;;;16.82;77.70
75063;BME280;63981;51.052;13.754;2023-08-30T07:14:58;99663.22;;;16.85;78.33
75063;BME280;63981;51.052;13.754;2023-08-30T07:17:24;99669.38;;;16.85;77.40
75063;BME280;63981;51.052;13.754;2023-08-30T07:19:50;99672.56;;;16.89;77.72
75063;BME280;63981;51.052;13.754;2023-08-30T07:22:16;99671.56;;;16.90;76.60
75063;BME280;63981;51.052;13.754;2023-08-30T07:24:44;99660.09;;;16.89;77.47
75063;BME280;63981;51.052;13.754;2023-08-30T07:27:10;99663.97;;;16.95;76.65
75063;BME280;63981;51.052;13.754;2023-08-30T07:29:38;99670.41;;;16.92;75.72
75063;BME280;63981;51.052;13.754;2023-08-30T07:32:08;99673.94;;;16.93;76.44
75063;BME280;63981;51.052;13.754;2023-08-30T07:34:34;99662.25;;;16.86;77.01
75063;BME280;63981;51.052;13.754;2023-08-30T07:37:00;99664.97;;;16.94;77.18
75063;BME280;63981;51.052;13.754;2023-08-30T07:39:26;99667.50;;;17.03;77.34
75063;BME280;63981;51.052;13.754;2023-08-30T07:41:52;99671.06;;;17.12;77.57
75063;BME280;63981;51.052;13.754;2023-08-30T07:44:18;99674.91;;;17.18;77.16
75063;BME280;63981;51.052;13.754;2023-08-30T07:46:46;99673.09;;;17.18;76.24
75063;BME280;63981;51.052;13.754;2023-08-30T07:49:12;99670.44;;;17.18;76.76
75063;BME280;63981;51.052;13.754;2023-08-30T07:51:38;99669.75;;;17.16;76.64
75063;BME280;63981;51.052;13.754;2023-08-30T07:54:04;99678.13;;;17.21;76.06
75063;BME280;63981;51.052;13.754;2023-08-30T07:56:30;99677.66;;;17.26;76.56
75063;BME280;63981;51.052;13.754;2023-08-30T07:58:56;99679.81;;;17.30;75.97
75063;BME280;63981;51.052;13.754;2023-08-30T08:01:23;99673.50;;;17.31;76.24
75063;BME280;63981;51.052;13.754;2023-08-30T08:03:49;99684.16;;;17.31;75.05
75063;BME280;63981;51.052;13.754;2023-08-30T08:06:15;99680.81;;;17.29;74.83
75063;BME280;63981;51.052;13.754;2023-08-30T08:08:41;99688.13;;;17.27;75.48
75063;BME280;63981;51.052;13.754;2023-08-30T08:11:07;99682.81;;;17.27;75.29
75063;BME280;63981;51.052;13.754;2023-08-30T08:13:33;99682.13;;;17.25;74.88
75063;BME280;63981;51.052;13.754;2023-08-30T08:15:59;99668.97;;;17.24;74.12
75063;BME280;63981;51.052;13.754;2023-08-30T08:18:25;99674.78;;;17.19;74.57
75063;BME280;63981;51.052;13.754;2023-08-30T08:20:52;99675.75;;;17.18;74.30
75063;BME280;63981;51.052;13.754;2023-08-30T08:23:18;99668.97;;;17.24;75.13
75063;BME280;63981;51.052;13.754;2023-08-30T08:25:45;99666.50;;;17.30;75.15
75063;BME280;63981;51.052;13.754;2023-08-30T08:28:11;99662.06;;;17.39;75.20
75063;BME280;63981;51.052;13.754;2023-08-30T08:30:37;99652.78;;;17.51;74.33
75063;BME280;63981;51.052;13.754;2023-08-30T08:33:03;99650.53;;;17.64;74.57
75063;BME280;63981;51.052;13.754;2023-08-30T08:35:29;99641.09;;;17.78;74.21
75063;BME280;63981;51.052;13.754;2023-08-30T08:37:55;99639.66;;;18.00;73.42
75063;BME280;63981;51.052;13.754;2023-08-30T08:40:21;99642.03;;;18.11;72.38
75063;BME280;63981;51.052;13.754;2023-08-30T08:42:49;99641.03;;;18.20;72.16
75063;BME280;63981;51.052;13.754;2023-08-30T08:45:17;99636.03;;;18.25;71.58
75063;BME280;63981;51.052;13.754;2023-08-30T08:47:45;99633.38;;;18.34;70.75
75063;BME280;63981;51.052;13.754;2023-08-30T08:50:12;99631.69;;;18.49;71.23
75063;BME280;63981;51.052;13.754;2023-08-30T08:52:38;99633.41;;;18.50;69.93
75063;BME280;63981;51.052;13.754;2023-08-30T08:55:04;99632.72;;;18.56;69.77
75063;BME280;63981;51.052;13.754;2023-08-30T08:57:31;99622.69;;;18.58;69.43
75063;BME280;63981;51.052;13.754;2023-08-30T08:59:59;99627.91;;;18.68;69.88
75063;BME280;63981;51.052;13.754;2023-08-30T09:02:26;99630.59;;;18.76;68.96
75063;BME280;63981;51.052;13.754;2023-08-30T09:04:55;99633.91;;;18.78;68.25
75063;BME280;63981;51.052;13.754;2023-08-30T09:07:21;99633.56;;;18.81;68.22
75063;BME280;63981;51.052;13.754;2023-08-30T09:09:47;99640.22;;;18.93;68.30
75063;BME280;63981;51.052;13.754;2023-08-30T09:12:13;99643.34;;;19.13;68.44
75063;BME280;63981;51.052;13.754;2023-08-30T09:14:40;99633.28;;;19.31;67.39
75063;BME280;63981;51.052;13.754;2023-08-30T09:17:06;99636.28;;;19.36;66.56
75063;BME280;63981;51.052;13.754;2023-08-30T09:19:32;99634.84;;;19.65;66.31
75063;BME280;63981;51.052;13.754;2023-08-30T09:21:59;99629.44;;;19.81;65.05
75063;BME280;63981;51.052;13.754;2023-08-30T09:24:25;99617.47;;;19.92;65.78
75063;BME280;63981;51.052;13.754;2023-08-30T09:26:53;99629.00;;;20.23;65.26
75063;BME280;63981;51.052;13.754;2023-08-30T09:29:20;99623.53;;;20.40;64.73
75063;BME280;63981;51.052;13.754;2023-08-30T09:31:51;99627.41;;;20.60;64.26
75063;BME280;63981;51.052;13.754;2023-08-30T09:34:23;99623.09;;;20.74;60.98
75063;BME280;63981;51.052;13.754;2023-08-30T09:36:51;99625.16;;;20.86;60.64
75063;BME280;63981;51.052;13.754;2023-08-30T09:39:18;99625.44;;;20.91;62.18
75063;BME280;63981;51.052;13.754;2023-08-30T09:41:49;99615.91;;;20.89;62.75
75063;BME280;63981;51.052;13.754;2023-08-30T09:44:19;99627.03;;;21.15;60.73
75063;BME280;63981;51.052;13.754;2023-08-30T09:46:50;99628.53;;;21.33;60.48
75063;BME280;63981;51.052;13.754;2023-08-30T09:49:22;99626.28;;;21.07;60.20
75063;BME280;63981;51.052;13.754;2023-08-30T09:51:50;99627.09;;;21.07;60.42
75063;BME280;63981;51.052;13.754;2023-08-30T09:54:19;99625.44;;;21.06;60.27
75063;BME280;63981;51.052;13.754;2023-08-30T09:56:45;99629.59;;;21.09;60.98
75063;BME280;63981;51.052;13.754;2023-08-30T09:59:15;99626.19;;;21.00;61.38
75063;BME280;63981;51.052;13.754;2023-08-30T10:01:42;99622.00;;;20.83;59.84
75063;BME280;63981;51.052;13.754;2023-08-30T10:04:10;99625.13;;;20.72;60.71
75063;BME280;63981;51.052;13.754;2023-08-30T10:06:39;99621.91;;;20.76;60.62
75063;BME280;63981;51.052;13.754;2023-08-30T10:09:06;99622.34;;;20.65;61.57
75063;BME280;63981;51.052;13.754;2023-08-30T10:11:35;99616.81;;;20.81;61.87
75063;BME280;63981;51.052;13.754;2023-08-30T10:14:06;99614.69;;;20.77;61.22
75063;BME280;63981;51.052;13.754;2023-08-30T10:16:41;99615.66;;;20.84;59.47
75063;BME280;63981;51.052;13.754;2023-08-30T10:19:24;99614.91;;;20.90;60.57
75063;BME280;63981;51.052;13.754;2023-08-30T10:22:06;99608.28;;;21.01;59.69
75063;BME280;63981;51.052;13.754;2023-08-30T10:24:50;99606.69;;;21.21;59.98
75063;BME280;63981;51.052;13.754;2023-08-30T10:27:19;99605.41;;;21.46;59.08
75063;BME280;63981;51.052;13.754;2023-08-30T10:29:47;99600.00;;;21.76;58.01
75063;BME280;63981;51.052;13.754;2023-08-30T10:32:20;99599.06;;;22.41;55.79
75063;BME280;63981;51.052;13.754;2023-08-30T10:34:51;99604.75;;;23.09;54.60
75063;BME280;63981;51.052;13.754;2023-08-30T10:37:23;99601.84;;;23.45;52.39
75063;BME280;63981;51.052;13.754;2023-08-30T10:39:52;99605.13;;;23.34;50.79
75063;BME280;63981;51.052;13.754;2023-08-30T10:42:22;99610.16;;;23.98;52.16
75063;BME280;63981;51.052;13.754;2023-08-30T10:44:57;99605.84;;;24.17;49.27
75063;BME280;63981;51.052;13.754;2023-08-30T10:47:27;99606.63;;;23.97;51.82
75063;BME280;63981;51.052;13.754;2023-08-30T10:50:00;99614.91;;;23.54;52.05
75063;BME280;63981;51.052;13.754;2023-08-30T10:52:27;99615.88;;;23.40;51.25
75063;BME280;63981;51.052;13.754;2023-08-30T10:57:36;99623.59;;;22.59;51.54
75063;BME280;63981;51.052;13.754;2023-08-30T11:00:08;99625.63;;;22.36;52.29
75063;BME280;63981;51.052;13.754;2023-08-30T11:02:38;99619.63;;;22.34;53.00
75063;BME280;63981;51.052;13.754;2023-08-30T11:05:09;99606.53;;;22.46;54.03
75063;BME280;63981;51.052;13.754;2023-08-30T11:07:38;99618.19;;;22.53;51.28
75063;BME280;63981;51.052;13.754;2023-08-30T11:10:05;99605.47;;;22.68;49.46
75063;BME280;63981;51.052;13.754;2023-08-30T11:12:33;99609.38;;;22.87;50.37
75063;BME280;63981;51.052;13.754;2023-08-30T11:14:59;99605.69;;;23.29;50.83
75063;BME280;63981;51.052;13.754;2023-08-30T11:17:26;99611.03;;;23.57;51.63
75063;BME280;63981;51.052;13.754;2023-08-30T11:20:09;99600.00;;;23.45;51.42
75063;BME280;63981;51.052;13.754;2023-08-30T11:22:41;99606.59;;;23.91;50.97
75063;BME280;63981;51.052;13.754;2023-08-30T11:25:09;99602.31;;;24.16;47.22
75063;BME280;63981;51.052;13.754;2023-08-30T11:27:36;99604.66;;;24.65;46.46
75063;BME280;63981;51.052;13.754;2023-08-30T11:30:03;99600.69;;;25.08;45.54
75063;BME280;63981;51.052;13.754;2023-08-30T11:32:39;99594.00;;;25.88;42.98
75063;BME280;63981;51.052;13.754;2023-08-30T11:35:06;99592.75;;;26.22;40.80
75063;BME280;63981;51.052;13.754;2023-08-30T11:37:34;99587.88;;;26.37;40.10
75063;BME280;63981;51.052;13.754;2023-08-30T11:40:04;99581.66;;;26.62;40.42
75063;BME280;63981;51.052;13.754;2023-08-30T11:42:32;99590.25;;;27.02;39.56
75063;BME280;63981;51.052;13.754;2023-08-30T11:44:58;99576.50;;;27.40;38.95
75063;BME280;63981;51.052;13.754;2023-08-30T11:47:28;99569.75;;;28.51;35.60
75063;BME280;63981;51.052;13.754;2023-08-30T11:49:56;99574.91;;;29.46;33.35
75063;BME280;63981;51.052;13.754;2023-08-30T11:52:24;99571.88;;;29.31;33.96
75063;BME280;63981;51.052;13.754;2023-08-30T11:54:51;99571.53;;;28.69;34.26
75063;BME280;63981;51.052;13.754;2023-08-30T11:57:17;99571.31;;;28.82;34.74
75063;BME280;63981;51.052;13.754;2023-08-30T11:59:44;99561.56;;;29.45;35.21
75063;BME280;63981;51.052;13.754;2023-08-30T12:02:12;99551.09;;;31.11;31.72
75063;BME280;63981;51.052;13.754;2023-08-30T12:04:43;99552.91;;;32.20;28.87
75063;BME280;63981;51.052;13.754;2023-08-30T12:07:21;99546.25;;;31.79;27.61
75063;BME280;63981;51.052;13.754;2023-08-30T12:09:48;99542.94;;;31.77;28.92
75063;BME280;63981;51.052;13.754;2023-08-30T12:12:14;99539.22;;;30.62;29.30
75063;BME280;63981;51.052;13.754;2023-08-30T12:14:40;99543.47;;;31.30;28.44
75063;BME280;63981;51.052;13.754;2023-08-30T12:17:08;99539.63;;;32.28;28.85
75063;BME280;63981;51.052;13.754;2023-08-30T12:19:34;99539.72;;;32.07;27.15
75063;BME280;63981;51.052;13.754;2023-08-30T12:22:04;99535.06;;;32.34;27.08
75063;BME280;63981;51.052;13.754;2023-08-30T12:24:43;99521.72;;;31.57;27.10
75063;BME280;63981;51.052;13.754;2023-08-30T12:27:09;99530.59;;;29.86;29.65
75063;BME280;63981;51.052;13.754;2023-08-30T12:29:35;99535.94;;;28.65;31.61
75063;BME280;63981;51.052;13.754;2023-08-30T12:32:02;99528.16;;;28.04;33.06
75063;BME280;63981;51.052;13.754;2023-08-30T12:34:28;99520.06;;;29.21;31.76
75063;BME280;63981;51.052;13.754;2023-08-30T12:36:54;99517.94;;;30.59;29.97
75063;BME280;63981;51.052;13.754;2023-08-30T12:39:21;99510.84;;;31.35;29.65
75063;BME280;63981;51.052;13.754;2023-08-30T12:41:47;99516.53;;;30.56;28.38
75063;BME280;63981;51.052;13.754;2023-08-30T12:44:13;99527.22;;;29.38;31.13
75063;BME280;63981;51.052;13.754;2023-08-30T12:46:39;99530.91;;;28.15;33.60
75063;BME280;63981;51.052;13.754;2023-08-30T12:49:05;99515.84;;;27.11;34.98
75063;BME280;63981;51.052;13.754;2023-08-30T12:51:31;99528.22;;;26.07;36.40
75063;BME280;63981;51.052;13.754;2023-08-30T12:53:57;99524.34;;;25.52;39.04
75063;BME280;63981;51.052;13.754;2023-08-30T12:56:23;99529.69;;;25.27;39.49
75063;BME280;63981;51.052;13.754;2023-08-30T12:58:49;99529.34;;;25.04;40.26
75063;BME280;63981;51.052;13.754;2023-08-30T13:01:17;99531.28;;;24.63;42.76
75063;BME280;63981;51.052;13.754;2023-08-30T13:03:43;99531.44;;;23.89;44.75